sensor_id;sensor_type;location;lat;lon;timestamp;P1;durP1;ratioP1;P2;durP2;ratioP2
33347;SDS011;19707;51.158;17.124;2022-10-26T00:01:07;31.87;;;18.40;;
33347;SDS011;19707;51.158;17.124;2022-10-26T00:04:10;31.17;;;18.87;;
33347;SDS011;19707;51.158;17.124;2022-10-26T00:07:12;30.52;;;18.00;;
33347;SDS011;19707;51.158;17.124;2022-10-26T00:10:13;33.02;;;18.95;;
33347;SDS011;19707;51.158;17.124;2022-10-26T00:13:15;33.53;;;18.62;;
33347;SDS011;19707;51.158;17.124;2022-10-26T00:16:17;35.15;;;19.42;;
33347;SDS011;19707;51.158;17.124;2022-10-26T00:19:27;30.60;;;19.52;;
33347;SDS011;19707;51.158;17.124;2022-10-26T00:22:28;33.23;;;18.60;;
33347;SDS011;19707;51.158;17.124;2022-10-26T00:25:29;38.10;;;18.57;;
33347;SDS011;19707;51.158;17.124;2022-10-26T00:28:30;34.50;;;18.90;;
33347;SDS011;19707;51.158;17.124;2022-10-26T00:31:32;34.40;;;17.67;;
33347;SDS011;19707;51.158;17.124;2022-10-26T00:34:34;33.00;;;18.75;;
33347;SDS011;19707;51.158;17.124;2022-10-26T00:37:36;32.28;;;19.02;;
33347;SDS011;19707;51.158;17.124;2022-10-26T00:40:38;31.50;;;17.27;;
33347;SDS011;19707;51.158;17.124;2022-10-26T00:43:41;28.20;;;17.55;;
33347;SDS011;19707;51.158;17.124;2022-10-26T00:46:43;33.40;;;17.57;;
33347;SDS011;19707;51.158;17.124;2022-10-26T00:49:44;33.30;;;19.23;;
33347;SDS011;19707;51.158;17.124;2022-10-26T00:52:47;26.10;;;18.00;;
33347;SDS011;19707;51.158;17.124;2022-10-26T00:55:51;33.63;;;18.98;;
33347;SDS011;19707;51.158;17.124;2022-10-26T00:58:53;30.15;;;18.00;;
33347;SDS011;19707;51.158;17.124;2022-10-26T01:01:55;29.95;;;18.73;;
33347;SDS011;19707;51.158;17.124;2022-10-26T01:04:57;26.48;;;18.90;;
33347;SDS011;19707;51.158;17.124;2022-10-26T01:07:59;32.93;;;18.00;;
33347;SDS011;19707;51.158;17.124;2022-10-26T01:11:00;28.92;;;17.55;;
33347;SDS011;19707;51.158;17.124;2022-10-26T01:14:02;30.27;;;16.75;;
33347;SDS011;19707;51.158;17.124;2022-10-26T01:17:12;30.72;;;16.37;;
33347;SDS011;19707;51.158;17.124;2022-10-26T01:27:26;27.02;;;17.45;;
33347;SDS011;19707;51.158;17.124;2022-10-26T01:30:35;27.70;;;16.10;;
33347;SDS011;19707;51.158;17.124;2022-10-26T01:36:52;27.48;;;16.95;;
33347;SDS011;19707;51.158;17.124;2022-10-26T01:40:01;27.75;;;16.85;;
33347;SDS011;19707;51.158;17.124;2022-10-26T01:43:08;30.00;;;16.02;;
33347;SDS011;19707;51.158;17.124;2022-10-26T01:46:11;25.25;;;16.05;;
33347;SDS011;19707;51.158;17.124;2022-10-26T01:49:13;29.18;;;16.55;;
33347;SDS011;19707;51.158;17.124;2022-10-26T01:52:17;35.50;;;19.10;;
33347;SDS011;19707;51.158;17.124;2022-10-26T01:58:56;29.82;;;16.85;;
33347;SDS011;19707;51.158;17.124;2022-10-26T02:13:15;25.80;;;15.93;;
33347;SDS011;19707;51.158;17.124;2022-10-26T02:16:24;27.50;;;16.50;;
33347;SDS011;19707;51.158;17.124;2022-10-26T02:19:55;31.68;;;17.55;;
33347;SDS011;19707;51.158;17.124;2022-10-26T02:23:09;29.98;;;17.20;;
33347;SDS011;19707;51.158;17.124;2022-10-26T02:26:11;26.37;;;16.40;;
33347;SDS011;19707;51.158;17.124;2022-10-26T02:29:16;26.10;;;16.95;;
33347;SDS011;19707;51.158;17.124;2022-10-26T02:32:18;26.40;;;16.37;;
33347;SDS011;19707;51.158;17.124;2022-10-26T02:35:24;28.67;;;17.30;;
33347;SDS011;19707;51.158;17.124;2022-10-26T02:38:28;27.80;;;15.08;;
33347;SDS011;19707;51.158;17.124;2022-10-26T02:41:32;25.48;;;15.80;;
33347;SDS011;19707;51.158;17.124;2022-10-26T02:44:40;25.08;;;16.48;;
33347;SDS011;19707;51.158;17.124;2022-10-26T02:47:51;28.42;;;17.45;;
33347;SDS011;19707;51.158;17.124;2022-10-26T02:51:13;25.05;;;15.90;;
33347;SDS011;19707;51.158;17.124;2022-10-26T02:55:08;26.52;;;16.50;;
33347;SDS011;19707;51.158;17.124;2022-10-26T02:58:09;21.52;;;14.18;;
33347;SDS011;19707;51.158;17.124;2022-10-26T03:01:16;29.80;;;16.93;;
33347;SDS011;19707;51.158;17.124;2022-10-26T03:04:18;29.32;;;16.02;;
33347;SDS011;19707;51.158;17.124;2022-10-26T03:07:21;23.38;;;14.98;;
33347;SDS011;19707;51.158;17.124;2022-10-26T03:10:24;24.35;;;15.50;;
33347;SDS011;19707;51.158;17.124;2022-10-26T03:13:26;24.25;;;16.30;;
33347;SDS011;19707;51.158;17.124;2022-10-26T03:16:29;27.90;;;16.00;;
33347;SDS011;19707;51.158;17.124;2022-10-26T03:19:30;25.32;;;16.02;;
33347;SDS011;19707;51.158;17.124;2022-10-26T03:22:31;31.27;;;21.07;;
33347;SDS011;19707;51.158;17.124;2022-10-26T03:25:32;31.73;;;23.20;;
33347;SDS011;19707;51.158;17.124;2022-10-26T03:28:33;34.03;;;22.42;;
33347;SDS011;19707;51.158;17.124;2022-10-26T03:31:35;27.70;;;19.73;;
33347;SDS011;19707;51.158;17.124;2022-10-26T03:34:36;35.83;;;19.95;;
33347;SDS011;19707;51.158;17.124;2022-10-26T03:37:38;27.27;;;20.12;;
33347;SDS011;19707;51.158;17.124;2022-10-26T03:40:39;28.87;;;20.30;;
33347;SDS011;19707;51.158;17.124;2022-10-26T03:43:42;27.73;;;19.17;;
33347;SDS011;19707;51.158;17.124;2022-10-26T03:46:44;30.50;;;19.05;;
33347;SDS011;19707;51.158;17.124;2022-10-26T03:49:45;28.27;;;19.50;;
33347;SDS011;19707;51.158;17.124;2022-10-26T03:52:46;37.23;;;23.60;;
33347;SDS011;19707;51.158;17.124;2022-10-26T03:55:49;43.68;;;23.98;;
33347;SDS011;19707;51.158;17.124;2022-10-26T03:58:50;41.42;;;28.52;;
33347;SDS011;19707;51.158;17.124;2022-10-26T04:01:51;39.80;;;27.00;;
33347;SDS011;19707;51.158;17.124;2022-10-26T04:04:52;45.78;;;28.65;;
33347;SDS011;19707;51.158;17.124;2022-10-26T04:07:54;45.10;;;30.48;;
33347;SDS011;19707;51.158;17.124;2022-10-26T04:10:58;47.93;;;31.77;;
33347;SDS011;19707;51.158;17.124;2022-10-26T04:13:59;49.73;;;30.97;;
33347;SDS011;19707;51.158;17.124;2022-10-26T04:17:01;51.98;;;34.58;;
33347;SDS011;19707;51.158;17.124;2022-10-26T04:20:04;47.98;;;32.98;;
33347;SDS011;19707;51.158;17.124;2022-10-26T04:23:11;45.00;;;32.28;;
33347;SDS011;19707;51.158;17.124;2022-10-26T04:26:15;46.02;;;31.12;;
33347;SDS011;19707;51.158;17.124;2022-10-26T04:29:16;42.85;;;29.63;;
33347;SDS011;19707;51.158;17.124;2022-10-26T04:32:17;39.73;;;27.95;;
33347;SDS011;19707;51.158;17.124;2022-10-26T04:35:18;39.50;;;25.57;;
33347;SDS011;19707;51.158;17.124;2022-10-26T04:38:20;35.52;;;24.47;;
33347;SDS011;19707;51.158;17.124;2022-10-26T04:41:21;35.80;;;24.20;;
33347;SDS011;19707;51.158;17.124;2022-10-26T04:44:23;32.90;;;22.70;;
33347;SDS011;19707;51.158;17.124;2022-10-26T04:47:24;31.45;;;21.95;;
33347;SDS011;19707;51.158;17.124;2022-10-26T04:50:25;29.50;;;21.52;;
33347;SDS011;19707;51.158;17.124;2022-10-26T04:53:27;29.67;;;20.40;;
33347;SDS011;19707;51.158;17.124;2022-10-26T04:56:28;30.52;;;20.70;;
33347;SDS011;19707;51.158;17.124;2022-10-26T04:59:30;31.17;;;23.38;;
33347;SDS011;19707;51.158;17.124;2022-10-26T05:02:31;35.80;;;22.00;;
33347;SDS011;19707;51.158;17.124;2022-10-26T05:05:33;34.53;;;22.87;;
33347;SDS011;19707;51.158;17.124;2022-10-26T05:08:37;33.73;;;23.17;;
33347;SDS011;19707;51.158;17.124;2022-10-26T05:11:38;33.50;;;23.10;;
33347;SDS011;19707;51.158;17.124;2022-10-26T05:14:39;31.57;;;21.73;;
33347;SDS011;19707;51.158;17.124;2022-10-26T05:17:41;34.15;;;21.62;;
33347;SDS011;19707;51.158;17.124;2022-10-26T05:20:42;28.52;;;20.82;;
33347;SDS011;19707;51.158;17.124;2022-10-26T05:23:48;31.35;;;22.55;;
33347;SDS011;19707;51.158;17.124;2022-10-26T05:26:53;35.20;;;22.07;;
33347;SDS011;19707;51.158;17.124;2022-10-26T05:29:54;35.85;;;22.80;;
33347;SDS011;19707;51.158;17.124;2022-10-26T05:32:59;34.80;;;23.80;;
33347;SDS011;19707;51.158;17.124;2022-10-26T05:36:04;36.80;;;23.95;;
33347;SDS011;19707;51.158;17.124;2022-10-26T05:39:06;51.13;;;32.00;;
33347;SDS011;19707;51.158;17.124;2022-10-26T05:42:08;53.48;;;32.30;;
33347;SDS011;19707;51.158;17.124;2022-10-26T05:45:09;52.15;;;31.65;;
33347;SDS011;19707;51.158;17.124;2022-10-26T05:48:12;47.30;;;30.75;;
33347;SDS011;19707;51.158;17.124;2022-10-26T05:51:16;49.25;;;32.03;;
33347;SDS011;19707;51.158;17.124;2022-10-26T05:54:18;47.90;;;30.77;;
33347;SDS011;19707;51.158;17.124;2022-10-26T05:57:19;44.25;;;28.35;;
33347;SDS011;19707;51.158;17.124;2022-10-26T06:00:22;46.95;;;27.67;;
33347;SDS011;19707;51.158;17.124;2022-10-26T06:06:57;47.78;;;27.93;;
33347;SDS011;19707;51.158;17.124;2022-10-26T06:09:59;45.45;;;27.27;;
33347;SDS011;19707;51.158;17.124;2022-10-26T06:13:02;47.35;;;28.00;;
33347;SDS011;19707;51.158;17.124;2022-10-26T06:30:10;59.25;;;33.98;;
33347;SDS011;19707;51.158;17.124;2022-10-26T06:33:12;53.98;;;34.27;;
33347;SDS011;19707;51.158;17.124;2022-10-26T06:36:21;56.18;;;35.17;;
33347;SDS011;19707;51.158;17.124;2022-10-26T06:39:26;60.67;;;34.63;;
33347;SDS011;19707;51.158;17.124;2022-10-26T06:42:30;57.78;;;34.85;;
33347;SDS011;19707;51.158;17.124;2022-10-26T06:45:33;54.05;;;35.10;;
33347;SDS011;19707;51.158;17.124;2022-10-26T06:52:19;50.08;;;33.95;;
33347;SDS011;19707;51.158;17.124;2022-10-26T06:55:18;52.43;;;34.50;;
33347;SDS011;19707;51.158;17.124;2022-10-26T06:58:20;56.53;;;35.63;;
33347;SDS011;19707;51.158;17.124;2022-10-26T07:01:24;63.90;;;36.77;;
33347;SDS011;19707;51.158;17.124;2022-10-26T07:04:26;52.53;;;35.05;;
33347;SDS011;19707;51.158;17.124;2022-10-26T07:07:27;56.18;;;34.65;;
33347;SDS011;19707;51.158;17.124;2022-10-26T07:10:30;43.45;;;31.25;;
33347;SDS011;19707;51.158;17.124;2022-10-26T07:13:31;38.50;;;26.52;;
33347;SDS011;19707;51.158;17.124;2022-10-26T07:16:32;46.10;;;29.05;;
33347;SDS011;19707;51.158;17.124;2022-10-26T07:19:34;44.60;;;27.82;;
33347;SDS011;19707;51.158;17.124;2022-10-26T07:22:36;47.93;;;28.02;;
33347;SDS011;19707;51.158;17.124;2022-10-26T07:25:37;53.50;;;29.00;;
33347;SDS011;19707;51.158;17.124;2022-10-26T07:28:40;40.63;;;27.02;;
33347;SDS011;19707;51.158;17.124;2022-10-26T07:31:41;36.03;;;24.05;;
33347;SDS011;19707;51.158;17.124;2022-10-26T07:34:42;36.10;;;24.18;;
33347;SDS011;19707;51.158;17.124;2022-10-26T07:37:43;35.58;;;24.80;;
33347;SDS011;19707;51.158;17.124;2022-10-26T07:40:45;37.83;;;23.65;;
33347;SDS011;19707;51.158;17.124;2022-10-26T07:43:49;26.45;;;17.50;;
33347;SDS011;19707;51.158;17.124;2022-10-26T07:46:51;33.30;;;23.60;;
33347;SDS011;19707;51.158;17.124;2022-10-26T07:49:52;35.40;;;22.85;;
33347;SDS011;19707;51.158;17.124;2022-10-26T07:52:54;34.58;;;23.42;;
33347;SDS011;19707;51.158;17.124;2022-10-26T07:55:55;43.42;;;23.73;;
33347;SDS011;19707;51.158;17.124;2022-10-26T07:58:58;36.00;;;23.27;;
33347;SDS011;19707;51.158;17.124;2022-10-26T08:01:59;36.30;;;22.77;;
33347;SDS011;19707;51.158;17.124;2022-10-26T08:05:01;32.42;;;22.13;;
33347;SDS011;19707;51.158;17.124;2022-10-26T08:08:03;33.60;;;22.60;;
33347;SDS011;19707;51.158;17.124;2022-10-26T08:11:05;37.65;;;19.90;;
33347;SDS011;19707;51.158;17.124;2022-10-26T08:14:07;29.00;;;20.08;;
33347;SDS011;19707;51.158;17.124;2022-10-26T08:17:10;31.52;;;20.43;;
33347;SDS011;19707;51.158;17.124;2022-10-26T08:20:12;29.63;;;19.10;;
33347;SDS011;19707;51.158;17.124;2022-10-26T08:23:13;28.57;;;18.35;;
33347;SDS011;19707;51.158;17.124;2022-10-26T08:26:15;33.05;;;18.65;;
33347;SDS011;19707;51.158;17.124;2022-10-26T08:29:18;35.10;;;18.52;;
33347;SDS011;19707;51.158;17.124;2022-10-26T08:32:19;26.05;;;17.02;;
33347;SDS011;19707;51.158;17.124;2022-10-26T08:35:20;33.20;;;16.82;;
33347;SDS011;19707;51.158;17.124;2022-10-26T08:38:22;23.10;;;17.07;;
33347;SDS011;19707;51.158;17.124;2022-10-26T08:41:32;27.13;;;17.07;;
33347;SDS011;19707;51.158;17.124;2022-10-26T08:47:46;37.08;;;22.40;;
33347;SDS011;19707;51.158;17.124;2022-10-26T08:50:54;36.40;;;21.87;;
33347;SDS011;19707;51.158;17.124;2022-10-26T08:54:03;33.25;;;19.32;;
33347;SDS011;19707;51.158;17.124;2022-10-26T08:57:13;32.10;;;18.45;;
33347;SDS011;19707;51.158;17.124;2022-10-26T09:00:28;30.55;;;18.02;;
33347;SDS011;19707;51.158;17.124;2022-10-26T09:03:30;30.17;;;19.57;;
33347;SDS011;19707;51.158;17.124;2022-10-26T09:06:48;24.95;;;17.32;;
33347;SDS011;19707;51.158;17.124;2022-10-26T09:10:25;21.85;;;15.13;;
33347;SDS011;19707;51.158;17.124;2022-10-26T09:21:24;26.70;;;13.40;;
33347;SDS011;19707;51.158;17.124;2022-10-26T09:24:27;22.73;;;13.35;;
33347;SDS011;19707;51.158;17.124;2022-10-26T09:27:33;22.17;;;13.13;;
33347;SDS011;19707;51.158;17.124;2022-10-26T09:30:40;20.82;;;14.38;;
33347;SDS011;19707;51.158;17.124;2022-10-26T09:33:46;18.05;;;13.00;;
33347;SDS011;19707;51.158;17.124;2022-10-26T09:36:51;17.77;;;12.28;;
33347;SDS011;19707;51.158;17.124;2022-10-26T09:43:10;16.12;;;11.15;;
33347;SDS011;19707;51.158;17.124;2022-10-26T09:46:22;15.05;;;10.15;;
33347;SDS011;19707;51.158;17.124;2022-10-26T09:49:35;16.55;;;10.90;;
33347;SDS011;19707;51.158;17.124;2022-10-26T09:52:48;20.17;;;10.00;;
33347;SDS011;19707;51.158;17.124;2022-10-26T09:55:58;19.65;;;10.60;;
33347;SDS011;19707;51.158;17.124;2022-10-26T09:58:57;16.90;;;10.30;;
33347;SDS011;19707;51.158;17.124;2022-10-26T10:02:30;16.40;;;10.75;;
33347;SDS011;19707;51.158;17.124;2022-10-26T10:05:39;20.48;;;9.50;;
33347;SDS011;19707;51.158;17.124;2022-10-26T10:08:40;9.93;;;7.28;;
33347;SDS011;19707;51.158;17.124;2022-10-26T10:11:47;15.30;;;8.13;;
33347;SDS011;19707;51.158;17.124;2022-10-26T10:14:55;12.13;;;6.90;;
33347;SDS011;19707;51.158;17.124;2022-10-26T10:17:58;11.00;;;6.67;;
33347;SDS011;19707;51.158;17.124;2022-10-26T10:21:01;12.13;;;6.55;;
33347;SDS011;19707;51.158;17.124;2022-10-26T10:27:33;14.05;;;8.13;;
33347;SDS011;19707;51.158;17.124;2022-10-26T10:30:35;16.60;;;8.70;;
33347;SDS011;19707;51.158;17.124;2022-10-26T10:33:39;20.50;;;11.57;;
33347;SDS011;19707;51.158;17.124;2022-10-26T10:36:42;18.77;;;12.35;;
33347;SDS011;19707;51.158;17.124;2022-10-26T10:39:44;21.55;;;14.23;;
33347;SDS011;19707;51.158;17.124;2022-10-26T10:42:45;19.67;;;11.97;;
33347;SDS011;19707;51.158;17.124;2022-10-26T10:45:50;18.25;;;10.38;;
33347;SDS011;19707;51.158;17.124;2022-10-26T10:49:00;16.50;;;9.85;;
33347;SDS011;19707;51.158;17.124;2022-10-26T10:52:02;14.43;;;9.48;;
33347;SDS011;19707;51.158;17.124;2022-10-26T10:58:34;15.40;;;8.73;;
33347;SDS011;19707;51.158;17.124;2022-10-26T11:09:10;10.75;;;4.70;;
33347;SDS011;19707;51.158;17.124;2022-10-26T11:12:17;8.13;;;4.55;;
33347;SDS011;19707;51.158;17.124;2022-10-26T11:15:23;10.82;;;5.00;;
33347;SDS011;19707;51.158;17.124;2022-10-26T11:21:41;6.65;;;4.58;;
33347;SDS011;19707;51.158;17.124;2022-10-26T11:24:48;13.35;;;4.45;;
33347;SDS011;19707;51.158;17.124;2022-10-26T11:27:55;9.55;;;4.58;;
33347;SDS011;19707;51.158;17.124;2022-10-26T11:31:05;7.10;;;4.22;;
33347;SDS011;19707;51.158;17.124;2022-10-26T11:34:26;11.33;;;4.47;;
33347;SDS011;19707;51.158;17.124;2022-10-26T11:40:51;6.97;;;3.55;;
33347;SDS011;19707;51.158;17.124;2022-10-26T11:44:14;6.95;;;4.10;;
33347;SDS011;19707;51.158;17.124;2022-10-26T11:47:41;10.00;;;3.90;;
33347;SDS011;19707;51.158;17.124;2022-10-26T11:50:53;7.33;;;3.05;;
33347;SDS011;19707;51.158;17.124;2022-10-26T11:54:00;13.60;;;3.50;;
33347;SDS011;19707;51.158;17.124;2022-10-26T11:57:04;9.98;;;2.87;;
33347;SDS011;19707;51.158;17.124;2022-10-26T12:03:31;5.60;;;2.50;;
33347;SDS011;19707;51.158;17.124;2022-10-26T12:06:37;7.33;;;3.00;;
33347;SDS011;19707;51.158;17.124;2022-10-26T12:09:38;7.67;;;3.98;;
33347;SDS011;19707;51.158;17.124;2022-10-26T12:15:51;6.90;;;2.27;;
33347;SDS011;19707;51.158;17.124;2022-10-26T12:19:19;5.47;;;2.45;;
33347;SDS011;19707;51.158;17.124;2022-10-26T12:25:43;7.00;;;2.55;;
33347;SDS011;19707;51.158;17.124;2022-10-26T12:28:44;10.48;;;3.52;;
33347;SDS011;19707;51.158;17.124;2022-10-26T12:31:48;5.40;;;2.75;;
33347;SDS011;19707;51.158;17.124;2022-10-26T12:37:59;5.72;;;3.17;;
33347;SDS011;19707;51.158;17.124;2022-10-26T12:44:32;4.87;;;2.12;;
33347;SDS011;19707;51.158;17.124;2022-10-26T12:50:44;4.20;;;2.22;;
33347;SDS011;19707;51.158;17.124;2022-10-26T12:57:23;5.08;;;1.87;;
33347;SDS011;19707;51.158;17.124;2022-10-26T13:00:27;4.78;;;2.15;;
33347;SDS011;19707;51.158;17.124;2022-10-26T13:03:33;4.97;;;2.05;;
33347;SDS011;19707;51.158;17.124;2022-10-26T13:06:58;5.10;;;2.42;;
33347;SDS011;19707;51.158;17.124;2022-10-26T13:13:20;4.47;;;1.95;;
33347;SDS011;19707;51.158;17.124;2022-10-26T13:16:22;3.95;;;1.90;;
33347;SDS011;19707;51.158;17.124;2022-10-26T13:19:46;5.60;;;2.02;;
33347;SDS011;19707;51.158;17.124;2022-10-26T13:22:45;4.05;;;2.00;;
33347;SDS011;19707;51.158;17.124;2022-10-26T13:26:04;6.37;;;2.55;;
33347;SDS011;19707;51.158;17.124;2022-10-26T13:29:12;8.53;;;1.77;;
33347;SDS011;19707;51.158;17.124;2022-10-26T13:32:13;3.72;;;1.80;;
33347;SDS011;19707;51.158;17.124;2022-10-26T13:35:14;6.05;;;2.00;;
33347;SDS011;19707;51.158;17.124;2022-10-26T13:38:17;6.50;;;2.10;;
33347;SDS011;19707;51.158;17.124;2022-10-26T13:41:24;12.28;;;2.65;;
33347;SDS011;19707;51.158;17.124;2022-10-26T13:44:43;6.55;;;2.00;;
33347;SDS011;19707;51.158;17.124;2022-10-26T13:51:17;4.25;;;1.77;;
33347;SDS011;19707;51.158;17.124;2022-10-26T13:54:37;3.83;;;2.20;;
33347;SDS011;19707;51.158;17.124;2022-10-26T13:57:53;6.85;;;2.10;;
33347;SDS011;19707;51.158;17.124;2022-10-26T14:01:23;5.08;;;2.67;;
33347;SDS011;19707;51.158;17.124;2022-10-26T14:04:26;9.30;;;2.40;;
33347;SDS011;19707;51.158;17.124;2022-10-26T14:07:35;6.45;;;2.35;;
33347;SDS011;19707;51.158;17.124;2022-10-26T14:10:57;7.17;;;2.72;;
33347;SDS011;19707;51.158;17.124;2022-10-26T14:13:59;5.40;;;3.27;;
33347;SDS011;19707;51.158;17.124;2022-10-26T14:17:02;3.72;;;2.30;;
33347;SDS011;19707;51.158;17.124;2022-10-26T14:20:05;5.35;;;2.30;;
33347;SDS011;19707;51.158;17.124;2022-10-26T14:23:23;6.30;;;1.80;;
33347;SDS011;19707;51.158;17.124;2022-10-26T14:26:38;3.60;;;2.05;;
33347;SDS011;19707;51.158;17.124;2022-10-26T14:29:40;3.30;;;2.15;;
33347;SDS011;19707;51.158;17.124;2022-10-26T14:32:42;4.40;;;2.60;;
33347;SDS011;19707;51.158;17.124;2022-10-26T14:35:43;5.83;;;2.05;;
33347;SDS011;19707;51.158;17.124;2022-10-26T14:38:45;7.00;;;2.90;;
33347;SDS011;19707;51.158;17.124;2022-10-26T14:41:49;5.97;;;2.45;;
33347;SDS011;19707;51.158;17.124;2022-10-26T14:44:51;3.35;;;2.15;;
33347;SDS011;19707;51.158;17.124;2022-10-26T14:47:52;4.03;;;1.85;;
33347;SDS011;19707;51.158;17.124;2022-10-26T14:51:08;5.92;;;2.58;;
33347;SDS011;19707;51.158;17.124;2022-10-26T14:54:19;6.15;;;2.60;;
33347;SDS011;19707;51.158;17.124;2022-10-26T14:57:30;8.35;;;2.92;;
33347;SDS011;19707;51.158;17.124;2022-10-26T15:00:38;7.00;;;2.42;;
33347;SDS011;19707;51.158;17.124;2022-10-26T15:03:40;6.45;;;2.27;;
33347;SDS011;19707;51.158;17.124;2022-10-26T15:09:46;40.90;;;28.02;;
33347;SDS011;19707;51.158;17.124;2022-10-26T15:12:52;44.98;;;27.48;;
33347;SDS011;19707;51.158;17.124;2022-10-26T15:15:55;16.02;;;7.92;;
33347;SDS011;19707;51.158;17.124;2022-10-26T15:19:10;14.47;;;7.85;;
33347;SDS011;19707;51.158;17.124;2022-10-26T15:22:19;8.65;;;5.05;;
33347;SDS011;19707;51.158;17.124;2022-10-26T15:25:25;11.73;;;6.80;;
33347;SDS011;19707;51.158;17.124;2022-10-26T15:28:30;8.98;;;4.42;;
33347;SDS011;19707;51.158;17.124;2022-10-26T15:31:34;9.38;;;5.35;;
33347;SDS011;19707;51.158;17.124;2022-10-26T15:34:36;20.68;;;10.05;;
33347;SDS011;19707;51.158;17.124;2022-10-26T15:37:45;17.05;;;6.62;;
33347;SDS011;19707;51.158;17.124;2022-10-26T15:40:49;10.98;;;6.47;;
33347;SDS011;19707;51.158;17.124;2022-10-26T15:43:51;16.12;;;6.17;;
33347;SDS011;19707;51.158;17.124;2022-10-26T15:46:59;9.35;;;5.65;;
33347;SDS011;19707;51.158;17.124;2022-10-26T15:50:01;10.98;;;5.05;;
33347;SDS011;19707;51.158;17.124;2022-10-26T15:53:07;12.82;;;4.90;;
33347;SDS011;19707;51.158;17.124;2022-10-26T15:56:13;8.95;;;4.33;;
33347;SDS011;19707;51.158;17.124;2022-10-26T15:59:17;7.72;;;4.37;;
33347;SDS011;19707;51.158;17.124;2022-10-26T16:02:20;11.05;;;5.03;;
33347;SDS011;19707;51.158;17.124;2022-10-26T16:05:21;9.65;;;5.72;;
33347;SDS011;19707;51.158;17.124;2022-10-26T16:08:23;14.63;;;5.85;;
33347;SDS011;19707;51.158;17.124;2022-10-26T16:11:28;12.50;;;6.00;;
33347;SDS011;19707;51.158;17.124;2022-10-26T16:14:30;12.70;;;6.90;;
33347;SDS011;19707;51.158;17.124;2022-10-26T16:17:32;17.07;;;7.37;;
33347;SDS011;19707;51.158;17.124;2022-10-26T16:20:37;12.28;;;7.28;;
33347;SDS011;19707;51.158;17.124;2022-10-26T16:23:39;12.10;;;7.67;;
33347;SDS011;19707;51.158;17.124;2022-10-26T16:26:42;18.17;;;10.48;;
33347;SDS011;19707;51.158;17.124;2022-10-26T16:29:43;18.98;;;11.35;;
33347;SDS011;19707;51.158;17.124;2022-10-26T16:32:45;28.30;;;11.53;;
33347;SDS011;19707;51.158;17.124;2022-10-26T16:35:57;18.55;;;10.98;;
33347;SDS011;19707;51.158;17.124;2022-10-26T16:39:00;19.80;;;10.78;;
33347;SDS011;19707;51.158;17.124;2022-10-26T16:42:02;24.25;;;14.40;;
33347;SDS011;19707;51.158;17.124;2022-10-26T16:45:06;36.08;;;20.60;;
33347;SDS011;19707;51.158;17.124;2022-10-26T16:48:17;71.15;;;41.70;;
33347;SDS011;19707;51.158;17.124;2022-10-26T16:51:25;30.43;;;19.87;;
33347;SDS011;19707;51.158;17.124;2022-10-26T16:54:27;29.05;;;17.30;;
33347;SDS011;19707;51.158;17.124;2022-10-26T16:57:33;26.87;;;16.07;;
33347;SDS011;19707;51.158;17.124;2022-10-26T17:00:35;21.52;;;13.50;;
33347;SDS011;19707;51.158;17.124;2022-10-26T17:03:38;20.17;;;12.60;;
33347;SDS011;19707;51.158;17.124;2022-10-26T17:06:40;18.92;;;11.95;;
33347;SDS011;19707;51.158;17.124;2022-10-26T17:09:42;17.60;;;10.45;;
33347;SDS011;19707;51.158;17.124;2022-10-26T17:12:44;17.42;;;11.05;;
33347;SDS011;19707;51.158;17.124;2022-10-26T17:15:46;17.55;;;11.33;;
33347;SDS011;19707;51.158;17.124;2022-10-26T17:18:49;17.98;;;10.85;;
33347;SDS011;19707;51.158;17.124;2022-10-26T17:21:51;23.02;;;10.53;;
33347;SDS011;19707;51.158;17.124;2022-10-26T17:24:53;17.67;;;11.05;;
33347;SDS011;19707;51.158;17.124;2022-10-26T17:27:55;23.70;;;13.60;;
33347;SDS011;19707;51.158;17.124;2022-10-26T17:31:11;23.55;;;14.33;;
33347;SDS011;19707;51.158;17.124;2022-10-26T17:34:14;39.98;;;25.02;;
33347;SDS011;19707;51.158;17.124;2022-10-26T17:37:17;35.92;;;22.75;;
33347;SDS011;19707;51.158;17.124;2022-10-26T17:40:19;41.33;;;23.95;;
33347;SDS011;19707;51.158;17.124;2022-10-26T17:43:22;40.78;;;26.10;;
33347;SDS011;19707;51.158;17.124;2022-10-26T17:46:24;43.52;;;28.45;;
33347;SDS011;19707;51.158;17.124;2022-10-26T17:49:28;46.53;;;26.77;;
33347;SDS011;19707;51.158;17.124;2022-10-26T17:52:30;40.88;;;27.15;;
33347;SDS011;19707;51.158;17.124;2022-10-26T17:55:33;39.55;;;26.02;;
33347;SDS011;19707;51.158;17.124;2022-10-26T17:58:35;42.83;;;28.12;;
33347;SDS011;19707;51.158;17.124;2022-10-26T18:01:37;35.60;;;24.85;;
33347;SDS011;19707;51.158;17.124;2022-10-26T18:04:38;39.03;;;25.35;;
33347;SDS011;19707;51.158;17.124;2022-10-26T18:07:40;43.65;;;27.45;;
33347;SDS011;19707;51.158;17.124;2022-10-26T18:10:45;39.58;;;25.15;;
33347;SDS011;19707;51.158;17.124;2022-10-26T18:13:49;40.83;;;23.00;;
33347;SDS011;19707;51.158;17.124;2022-10-26T18:16:56;44.53;;;27.65;;
33347;SDS011;19707;51.158;17.124;2022-10-26T18:19:58;44.08;;;29.37;;
33347;SDS011;19707;51.158;17.124;2022-10-26T18:22:59;41.02;;;27.98;;
33347;SDS011;19707;51.158;17.124;2022-10-26T18:26:01;48.33;;;31.50;;
33347;SDS011;19707;51.158;17.124;2022-10-26T18:29:17;53.45;;;33.60;;
33347;SDS011;19707;51.158;17.124;2022-10-26T18:32:19;54.23;;;33.13;;
33347;SDS011;19707;51.158;17.124;2022-10-26T18:35:22;53.35;;;35.65;;
33347;SDS011;19707;51.158;17.124;2022-10-26T18:38:24;60.25;;;35.65;;
33347;SDS011;19707;51.158;17.124;2022-10-26T18:41:26;52.67;;;34.73;;
33347;SDS011;19707;51.158;17.124;2022-10-26T18:44:27;59.05;;;37.95;;
33347;SDS011;19707;51.158;17.124;2022-10-26T18:47:29;47.23;;;32.88;;
33347;SDS011;19707;51.158;17.124;2022-10-26T18:50:33;56.90;;;38.17;;
33347;SDS011;19707;51.158;17.124;2022-10-26T18:53:36;70.78;;;43.38;;
33347;SDS011;19707;51.158;17.124;2022-10-26T18:56:39;77.45;;;46.92;;
33347;SDS011;19707;51.158;17.124;2022-10-26T18:59:41;69.40;;;45.50;;
33347;SDS011;19707;51.158;17.124;2022-10-26T19:02:42;62.98;;;41.85;;
33347;SDS011;19707;51.158;17.124;2022-10-26T19:05:43;81.72;;;51.08;;
33347;SDS011;19707;51.158;17.124;2022-10-26T19:08:44;122.42;;;72.27;;
33347;SDS011;19707;51.158;17.124;2022-10-26T19:11:46;94.15;;;55.73;;
33347;SDS011;19707;51.158;17.124;2022-10-26T19:14:47;122.87;;;71.72;;
33347;SDS011;19707;51.158;17.124;2022-10-26T19:17:51;107.58;;;65.05;;
33347;SDS011;19707;51.158;17.124;2022-10-26T19:20:59;147.50;;;86.97;;
33347;SDS011;19707;51.158;17.124;2022-10-26T19:24:03;149.60;;;87.95;;
33347;SDS011;19707;51.158;17.124;2022-10-26T19:27:10;140.65;;;82.70;;
33347;SDS011;19707;51.158;17.124;2022-10-26T19:30:11;134.43;;;80.53;;
33347;SDS011;19707;51.158;17.124;2022-10-26T19:33:13;127.87;;;75.87;;
33347;SDS011;19707;51.158;17.124;2022-10-26T19:36:14;134.78;;;75.37;;
33347;SDS011;19707;51.158;17.124;2022-10-26T19:39:16;119.67;;;74.95;;
33347;SDS011;19707;51.158;17.124;2022-10-26T19:42:18;119.42;;;72.47;;
33347;SDS011;19707;51.158;17.124;2022-10-26T19:45:19;118.70;;;71.30;;